New Millport, PA (16861)

11:31 PM EST on February 21, 2017 (GMT -0500)
Twinoaks | | Change Station

Elev 1493 ft 40.99 °N, 78.53 °W | Updated 58 seconds ago

Overcast
Overcast
43.6 °F
Feels Like 44 °F
N
1.0
Wind Variable Wind from NNE

Today
High -- | Low -- °F
--% Chance of Precip.
Yesterday
High -- | Low -- °F
Precip. -- in
Pressure 29.99 in
Visibility 10.0 miles
Clouds Few 8500 ft
Windchill 44 °F
Dew Point 33 °F
Humidity 68%
Rainfall 0.00 in
Snow Depth Not available.
6:59 AM 5:56 PM
Waning Crescent, 20% visible
METAR KDUJ 220353Z AUTO 11004KT 10SM FEW085 08/M01 A2997 RMK AO2 SLP156 T00781011
Pressure 29.99 in
Visibility 10.0 miles
Clouds Few 8500 ft
Windchill 44 °F
Dew Point 33 °F
Humidity 68%
Rainfall 0.00 in
Snow Depth Not available.
6:59 AM 5:56 PM
Waning Crescent, 20% visible
METAR KDUJ 220353Z AUTO 11004KT 10SM FEW085 08/M01 A2997 RMK AO2 SLP156 T00781011

Get Your Daily Forecast Email!

Thanks for signing up!

Be on the lookout for a verification email in your inbox.

You'll start receiving the daily forecast at 8 AM.

×

10-Day Weather Forecast

Almanac

Astronomy

Feb. 21, 2017 Rise Set
Actual Time
Civil Twilight
Nautical Twilight
Astronomical Twilight
Moon
Length of Visible Light
Length of Day
Tomorrow will be .
, % of the Moon is Illuminated

Today's Extremes

State Highs State Lows

Community

WunderPhotos

Upload Photos

1,962,540 photos uploaded!

WunderBlog® & News

Nearby

Air Quality

  Air Quality AQ Index Pollutant
Not available.

Snow Depth

Station Depth Elevation

Earthquake Activity

City Distance Mag. Time & Date
Minimum magnitude displayed is 2.5.

Coastal Water Temperatures

Place Temperature

Stations

Nearby Weather Stations

Station Location Temp. Windchill Dew Point Humidity Wind Precip. Elev Updated Type
                   

Watches & Warnings

There are currently no watches in effect.